Time;durP1;ratioP1;P1;durP2;ratioP2;P2;SDS_P1;SDS_P2;PMS_P1;PMS_P2;Temp;Humidity;BMP_temperature;BMP_pressure;BME280_temperature;BME280_humidity;BME280_pressure;Samples;Min_cycle;Max_cycle;Signal;HPM_P1;HPM_P2
2021/12/26 00:00:59;;;;;;;287.30;208.20;;;;;;;25.83;38.77;99912.72;5003025;28;20033;-42
2021/12/26 00:03:29;;;;;;;296.95;212.25;;;;;;;25.88;38.67;99912.69;5006054;28;20471;-44
2021/12/26 00:06:00;;;;;;;303.17;210.07;;;;;;;25.85;38.60;99905.69;5006608;28;20026;-45
2021/12/26 00:08:28;;;;;;;298.25;215.02;;;;;;;25.85;38.70;99912.72;5006881;28;20033;-43
2021/12/26 00:10:57;;;;;;;292.10;211.75;;;;;;;25.87;38.68;99914.44;5006248;28;20086;-44
2021/12/26 00:13:27;;;;;;;294.73;212.95;;;;;;;25.86;38.38;99917.09;5006309;28;20468;-44
2021/12/26 00:15:55;;;;;;;310.60;217.90;;;;;;;25.82;38.59;99916.25;5006075;28;20112;-45
2021/12/26 00:18:24;;;;;;;290.42;215.68;;;;;;;25.71;38.60;99905.88;5005874;28;20084;-44
2021/12/26 00:20:53;;;;;;;292.40;211.82;;;;;;;25.83;38.69;99933.75;5006278;28;20030;-44
2021/12/26 00:23:22;;;;;;;305.73;217.65;;;;;;;25.84;38.73;99935.50;5006298;28;20026;-46
2021/12/26 00:25:50;;;;;;;290.05;210.85;;;;;;;25.74;38.62;99923.34;5006345;28;20032;-44
2021/12/26 00:28:19;;;;;;;302.05;218.35;;;;;;;25.78;38.63;99936.44;5006364;28;20484;-44
2021/12/26 00:30:48;;;;;;;293.52;214.23;;;;;;;25.76;38.86;99943.44;5005833;28;20120;-44
2021/12/26 00:33:16;;;;;;;301.95;215.15;;;;;;;25.73;38.90;99946.09;5021143;28;20499;-44
2021/12/26 00:35:45;;;;;;;308.40;226.30;;;;;;;25.79;38.77;99946.06;5005969;28;20309;-44
2021/12/26 00:38:14;;;;;;;308.42;221.50;;;;;;;25.78;38.72;99951.34;5003480;28;20316;-44
2021/12/26 00:40:43;;;;;;;298.73;218.68;;;;;;;25.81;38.96;99958.31;5006160;28;20488;-44
2021/12/26 00:43:12;;;;;;;303.90;218.73;;;;;;;25.72;38.81;99954.91;5004808;28;20121;-43
2021/12/26 00:45:41;;;;;;;310.75;223.13;;;;;;;25.72;38.62;99956.66;5006100;28;20084;-43
2021/12/26 00:48:10;;;;;;;292.80;216.00;;;;;;;25.74;38.99;99962.75;5005982;28;20034;-44
2021/12/26 00:50:40;;;;;;;289.13;213.32;;;;;;;25.74;38.99;99952.25;5004487;28;20036;-43
2021/12/26 00:53:09;;;;;;;305.35;219.10;;;;;;;25.57;39.01;99929.66;5005808;28;20032;-43
2021/12/26 00:55:38;;;;;;;312.48;223.20;;;;;;;25.69;38.80;99954.94;5005784;28;20037;-43
2021/12/26 00:58:08;;;;;;;288.00;215.40;;;;;;;25.68;38.92;99942.69;5005643;28;20480;-44
2021/12/26 01:00:41;;;;;;;304.05;218.10;;;;;;;25.74;38.78;99941.75;5005681;28;20037;-44
2021/12/26 01:03:11;;;;;;;308.35;222.77;;;;;;;25.69;38.68;99944.44;5004397;28;20095;-44
2021/12/26 01:05:42;;;;;;;300.85;222.20;;;;;;;25.62;39.21;99943.63;5005551;28;20048;-44
2021/12/26 01:08:13;;;;;;;308.63;221.13;;;;;;;25.63;38.89;99942.72;5004083;28;20610;-44
2021/12/26 01:10:50;;;;;;;298.02;218.25;;;;;;;25.63;38.89;99952.34;5003819;28;20075;-44
2021/12/26 01:13:27;;;;;;;281.38;212.07;;;;;;;25.70;38.75;99961.03;5005616;28;20076;-44
2021/12/26 01:15:58;;;;;;;313.40;229.93;;;;;;;25.66;38.82;99952.34;5005288;28;20057;-44
2021/12/26 01:18:31;;;;;;;304.75;222.73;;;;;;;25.68;38.91;99960.19;5005346;28;20503;-43
2021/12/26 01:21:06;;;;;;;310.48;223.50;;;;;;;25.68;38.86;99957.56;5005131;28;20038;-42
2021/12/26 01:23:35;;;;;;;330.30;232.43;;;;;;;25.69;38.77;99951.41;5005399;28;20480;-43
2021/12/26 01:26:03;;;;;;;299.48;218.73;;;;;;;25.73;38.65;99966.25;5005038;28;20213;-42
2021/12/26 01:28:32;;;;;;;320.08;231.15;;;;;;;25.76;38.72;99963.63;5004636;28;20038;-43
2021/12/26 01:31:01;;;;;;;312.55;229.65;;;;;;;25.77;38.70;99957.47;5005298;28;20033;-45
2021/12/26 01:33:30;;;;;;;309.00;230.27;;;;;;;25.70;38.82;99955.78;5005104;28;20038;-43
2021/12/26 01:35:59;;;;;;;312.02;231.38;;;;;;;25.63;38.84;99961.13;5005121;28;20704;-43
2021/12/26 01:38:28;;;;;;;326.10;236.10;;;;;;;25.60;39.15;99961.16;5005126;28;20104;-43
2021/12/26 01:41:01;;;;;;;320.83;232.05;;;;;;;25.60;39.24;99958.53;5004550;28;20022;-43
2021/12/26 01:43:30;;;;;;;308.40;227.95;;;;;;;25.48;38.79;99937.63;5005003;28;20088;-43
2021/12/26 01:45:59;;;;;;;325.48;231.38;;;;;;;25.65;38.86;99962.88;5004798;28;20038;-43
2021/12/26 01:48:28;;;;;;;313.83;228.90;;;;;;;25.62;39.00;99954.13;5005076;28;20025;-44
2021/12/26 01:50:57;;;;;;;312.45;227.90;;;;;;;25.57;39.18;99950.66;5004778;28;20112;-44
2021/12/26 01:53:35;;;;;;;327.92;236.27;;;;;;;25.56;38.96;99959.44;5004472;28;20076;-45
2021/12/26 01:56:10;;;;;;;320.20;235.63;;;;;;;25.58;38.88;99951.53;5004720;28;20051;-43
2021/12/26 01:58:39;;;;;;;318.13;230.27;;;;;;;25.62;38.96;99959.38;5004986;28;20476;-44
2021/12/26 02:01:10;;;;;;;328.52;233.75;;;;;;;25.61;38.95;99957.63;5004550;28;20045;-44
2021/12/26 02:03:41;;;;;;;322.70;229.68;;;;;;;25.57;38.91;99963.78;5004499;28;20061;-44
2021/12/26 02:06:11;;;;;;;318.13;231.88;;;;;;;25.58;39.17;99959.41;5004661;28;20029;-44
2021/12/26 02:08:39;;;;;;;315.85;232.65;;;;;;;25.54;39.17;99948.06;5003822;28;20066;-45
2021/12/26 02:11:08;;;;;;;325.80;239.02;;;;;;;25.57;38.89;99950.66;5002292;28;20515;-45
2021/12/26 02:13:38;;;;;;;310.75;230.48;;;;;;;25.55;38.97;99957.69;5004287;28;20160;-44
2021/12/26 02:16:08;;;;;;;334.52;244.63;;;;;;;25.60;39.04;99965.50;5004383;28;20030;-45
2021/12/26 02:18:37;;;;;;;316.55;237.80;;;;;;;25.60;39.03;99969.03;5004165;28;20041;-44
2021/12/26 02:21:29;;;;;;;322.42;239.80;;;;;;;25.59;38.94;99969.91;5002844;28;20022;-44
2021/12/26 02:24:01;;;;;;;320.75;238.75;;;;;;;25.55;38.85;99968.19;5010371;28;20034;-44
2021/12/26 02:29:17;;;;;;;323.20;235.02;;;;;;;25.50;38.92;99966.50;4999877;28;20503;-45
2021/12/26 02:31:45;;;;;;;321.38;237.38;;;;;;;25.46;39.22;99969.13;5004117;28;20342;-43
2021/12/26 02:34:14;;;;;;;331.63;241.23;;;;;;;25.51;38.92;99974.34;5004360;28;20472;-44
2021/12/26 02:36:46;;;;;;;315.33;238.43;;;;;;;25.48;38.89;99972.63;5003503;28;20029;-44
2021/12/26 02:39:15;;;;;;;330.13;239.15;;;;;;;25.48;39.15;99979.66;5004344;28;20061;-43
2021/12/26 02:41:46;;;;;;;319.02;236.75;;;;;;;25.44;39.01;99986.66;5003458;28;20400;-43
2021/12/26 02:44:15;;;;;;;329.23;237.18;;;;;;;25.52;39.04;99981.34;5004144;28;20029;-45
2021/12/26 02:46:43;;;;;;;340.98;236.88;;;;;;;25.46;39.11;99986.66;5003804;28;20041;-44
2021/12/26 02:49:12;;;;;;;325.80;235.82;;;;;;;25.50;39.17;99988.34;5003588;28;20034;-44
2021/12/26 02:51:44;;;;;;;320.75;236.57;;;;;;;25.49;39.09;99986.63;5004048;28;20030;-43
2021/12/26 02:54:13;;;;;;;331.27;233.38;;;;;;;25.51;38.94;99992.72;5003726;28;20026;-43
2021/12/26 02:56:41;;;;;;;324.00;234.43;;;;;;;25.49;38.87;99999.75;5003540;28;20188;-43
2021/12/26 02:59:15;;;;;;;315.00;235.27;;;;;;;25.49;39.30;99991.88;5003673;28;20034;-43
2021/12/26 03:01:43;;;;;;;313.67;234.15;;;;;;;25.48;39.00;99990.16;5003546;28;20022;-43
2021/12/26 03:04:12;;;;;;;320.55;233.70;;;;;;;25.50;39.19;100004.13;5003491;28;20041;-43
2021/12/26 03:06:54;;;;;;;315.13;232.38;;;;;;;25.52;38.78;99993.63;5002230;28;20073;-44
2021/12/26 03:09:23;;;;;;;325.77;238.63;;;;;;;25.56;38.64;100001.44;5003499;28;20025;-43
2021/12/26 03:11:51;;;;;;;323.17;235.02;;;;;;;25.50;39.08;100004.13;5003319;28;20029;-44
2021/12/26 03:14:20;;;;;;;306.08;222.45;;;;;;;25.53;38.91;100005.88;5003168;28;20209;-45
2021/12/26 03:16:50;;;;;;;306.27;225.23;;;;;;;25.56;38.94;100001.44;5003468;28;20038;-44
2021/12/26 03:19:19;;;;;;;320.77;229.85;;;;;;;25.57;38.96;99997.03;5003637;28;20105;-43
2021/12/26 03:21:54;;;;;;;315.30;232.02;;;;;;;25.53;39.07;99998.84;5003293;28;20030;-43
2021/12/26 03:24:21;;;;;;;;;;;;;;;25.60;38.92;100011.03;5003654;28;20037;-43
2021/12/26 03:26:50;;;;;;;330.80;238.88;;;;;;;25.49;38.92;99997.13;5003303;28;20136;-44
2021/12/26 03:29:19;;;;;;;326.50;240.80;;;;;;;25.41;39.17;99993.66;5003355;28;20030;-44
2021/12/26 03:31:47;;;;;;;319.80;235.98;;;;;;;25.34;39.39;99992.84;5003526;28;20038;-43
2021/12/26 03:34:16;;;;;;;338.20;239.70;;;;;;;25.38;39.14;99996.31;5003504;28;20038;-43
2021/12/26 03:36:44;;;;;;;314.05;230.38;;;;;;;25.34;39.30;100001.59;5004023;28;20036;-43
2021/12/26 03:39:13;;;;;;;314.75;228.27;;;;;;;25.33;39.47;99997.22;5007088;28;20502;-42
2021/12/26 03:41:43;;;;;;;313.80;230.60;;;;;;;25.40;38.92;99999.81;5006940;28;20737;-43
2021/12/26 03:44:12;;;;;;;332.58;239.63;;;;;;;25.36;39.40;100000.69;5007038;28;20041;-43
2021/12/26 03:46:41;;;;;;;317.25;233.15;;;;;;;25.38;39.02;99993.69;5006907;28;20034;-43
2021/12/26 03:49:12;;;;;;;307.40;227.15;;;;;;;25.35;38.99;99994.59;5007196;28;20038;-44
2021/12/26 03:51:40;;;;;;;327.67;234.52;;;;;;;25.37;39.30;99999.81;5007113;28;20026;-44
2021/12/26 03:54:11;;;;;;;342.50;247.43;;;;;;;25.32;39.36;99994.63;5007017;28;20034;-43
2021/12/26 03:56:44;;;;;;;346.23;248.43;;;;;;;25.31;39.33;99990.25;5005019;28;20442;-43
2021/12/26 03:59:13;;;;;;;326.48;245.20;;;;;;;25.28;39.36;99995.50;5006677;28;20026;-43
2021/12/26 04:01:42;;;;;;;336.08;243.07;;;;;;;25.24;39.54;99992.06;5005982;28;20376;-44
2021/12/26 04:04:10;;;;;;;336.42;244.38;;;;;;;25.19;39.60;99988.56;5006901;28;20404;-43
2021/12/26 04:06:41;;;;;;;332.38;242.85;;;;;;;25.22;39.66;99993.81;5005325;28;20621;-43
2021/12/26 04:09:11;;;;;;;344.42;244.85;;;;;;;25.27;39.23;99999.91;5006707;28;20117;-43
2021/12/26 04:11:44;;;;;;;336.77;244.90;;;;;;;25.15;39.49;99981.63;5006830;28;20491;-44
2021/12/26 04:14:14;;;;;;;338.75;249.30;;;;;;;25.23;39.74;99990.31;5006631;28;20112;-43
2021/12/26 04:16:47;;;;;;;347.00;253.55;;;;;;;25.25;39.58;99998.16;5006789;28;20529;-45
2021/12/26 04:19:16;;;;;;;344.85;245.45;;;;;;;25.23;39.23;100002.56;5006247;28;20137;-44
2021/12/26 04:21:44;;;;;;;341.48;244.38;;;;;;;25.27;39.32;100005.16;5006289;28;20038;-44
2021/12/26 04:24:14;;;;;;;343.63;249.23;;;;;;;25.24;39.44;99997.31;5006279;28;20468;-44
2021/12/26 04:26:43;;;;;;;321.90;236.88;;;;;;;25.24;39.46;99999.94;5006347;28;20033;-44
2021/12/26 04:29:14;;;;;;;332.75;242.43;;;;;;;25.21;39.50;100001.72;5006454;28;20320;-44
2021/12/26 04:31:48;;;;;;;330.08;240.75;;;;;;;25.18;39.47;99989.47;5006124;28;20026;-43
2021/12/26 04:34:18;;;;;;;352.08;250.77;;;;;;;25.25;39.35;99987.66;5005033;28;20030;-44
2021/12/26 04:36:48;;;;;;;355.42;252.55;;;;;;;25.22;39.67;99979.84;5005903;28;20030;-45
2021/12/26 04:39:17;;;;;;;350.95;248.93;;;;;;;25.18;39.82;99976.34;5005739;28;20498;-44
2021/12/26 04:41:46;;;;;;;338.52;248.98;;;;;;;25.18;39.73;99978.97;5005790;28;20028;-43
2021/12/26 04:44:25;;;;;;;337.55;253.48;;;;;;;25.15;39.83;99984.25;5005924;28;20183;-44
2021/12/26 04:46:54;;;;;;;349.08;247.75;;;;;;;25.14;39.68;99982.53;5006107;28;20037;-43
2021/12/26 04:49:23;;;;;;;350.25;259.52;;;;;;;25.17;39.64;99980.72;5005402;28;20483;-43
2021/12/26 04:51:51;;;;;;;352.67;253.30;;;;;;;25.14;39.58;99975.50;5004005;28;20125;-44
2021/12/26 04:54:20;;;;;;;353.17;257.13;;;;;;;25.16;39.50;99979.00;5006239;28;20127;-43
2021/12/26 04:56:49;;;;;;;341.80;251.50;;;;;;;25.16;39.69;99976.38;5003602;28;20057;-43
2021/12/26 04:59:18;;;;;;;356.50;260.02;;;;;;;25.14;39.65;99987.75;5005846;28;20120;-43
2021/12/26 05:01:46;;;;;;;357.73;254.73;;;;;;;25.14;39.53;99996.50;5005347;28;20112;-43
2021/12/26 05:04:15;;;;;;;352.70;255.10;;;;;;;25.14;39.89;99985.13;5005879;28;20099;-44
2021/12/26 05:06:44;;;;;;;357.80;258.40;;;;;;;25.13;39.39;99976.38;5007694;28;20037;-44
2021/12/26 05:09:15;;;;;;;353.02;258.33;;;;;;;25.13;39.55;99975.53;5005052;28;20026;-43
2021/12/26 05:11:43;;;;;;;354.92;257.85;;;;;;;25.26;39.82;99974.53;5003715;28;20088;-43
2021/12/26 05:14:12;;;;;;;358.00;259.60;;;;;;;25.20;39.51;99963.22;5005392;28;20193;-44
2021/12/26 05:16:40;;;;;;;359.25;264.55;;;;;;;25.13;39.96;99965.88;5004052;28;20356;-44
2021/12/26 05:19:14;;;;;;;348.02;254.98;;;;;;;25.11;40.00;99961.53;5005565;28;20087;-43
2021/12/26 05:21:45;;;;;;;353.67;256.17;;;;;;;25.10;39.95;99971.16;5004721;28;20036;-44
2021/12/26 05:24:13;;;;;;;358.75;260.10;;;;;;;25.10;40.07;99967.66;5005231;28;20530;-44
2021/12/26 05:26:42;;;;;;;358.30;262.40;;;;;;;25.05;39.89;99962.47;5005376;28;20448;-45
2021/12/26 05:29:16;;;;;;;374.13;266.70;;;;;;;25.05;40.09;99949.34;5004786;28;20040;-43
2021/12/26 05:31:45;;;;;;;358.70;263.50;;;;;;;25.07;39.89;99936.19;5004950;28;20045;-44
2021/12/26 05:34:16;;;;;;;349.42;261.33;;;;;;;25.07;40.02;99934.44;5003620;28;20018;-44
2021/12/26 05:36:50;;;;;;;369.15;265.92;;;;;;;25.07;39.91;99929.19;5003788;28;20035;-43
2021/12/26 05:39:18;;;;;;;364.17;264.90;;;;;;;25.09;40.02;99918.69;5005283;28;20044;-45
2021/12/26 05:41:47;;;;;;;360.35;263.67;;;;;;;25.07;39.91;99918.69;5004937;28;20026;-43
2021/12/26 05:44:16;;;;;;;359.35;262.13;;;;;;;25.13;39.64;99933.53;5005009;28;20099;-43
2021/12/26 05:46:45;;;;;;;362.00;258.70;;;;;;;25.10;40.13;99920.44;5004755;28;20042;-45
2021/12/26 05:49:14;;;;;;;350.95;260.40;;;;;;;25.09;39.88;99918.69;5004958;28;20032;-45
2021/12/26 05:51:43;;;;;;;360.40;264.10;;;;;;;25.10;40.03;99928.31;5004488;28;20403;-45
2021/12/26 05:54:15;;;;;;;369.67;265.35;;;;;;;25.07;39.76;99941.44;5004524;28;20138;-44
2021/12/26 05:56:48;;;;;;;359.52;267.38;;;;;;;25.05;39.72;99949.34;5004594;28;20038;-44
2021/12/26 05:59:17;;;;;;;350.83;263.02;;;;;;;25.02;39.94;99958.09;5003977;28;20037;-45
2021/12/26 06:01:46;;;;;;;357.95;260.42;;;;;;;25.00;39.99;99957.22;5004484;28;20057;-45
2021/12/26 06:04:20;;;;;;;365.50;262.40;;;;;;;25.07;40.20;99968.53;5004598;28;20113;-46
2021/12/26 06:06:53;;;;;;;350.42;258.83;;;;;;;25.03;39.87;99962.44;5004775;28;20030;-44
2021/12/26 06:09:22;;;;;;;356.88;259.33;;;;;;;25.02;40.22;99950.22;5004294;28;20276;-44
2021/12/26 06:11:50;;;;;;;370.90;268.48;;;;;;;25.07;39.83;99946.69;5004226;28;20037;-45
2021/12/26 06:14:19;;;;;;;354.55;261.63;;;;;;;25.01;40.33;99942.38;5004117;28;20026;-44
2021/12/26 06:16:48;;;;;;;345.80;257.23;;;;;;;24.99;39.85;99941.50;5004337;28;20033;-45
2021/12/26 06:19:16;;;;;;;362.65;265.80;;;;;;;25.01;40.00;99939.75;5004459;28;20121;-44
2021/12/26 06:21:45;;;;;;;364.85;266.58;;;;;;;24.99;40.26;99939.72;5002879;28;20041;-45
2021/12/26 06:24:14;;;;;;;363.45;262.80;;;;;;;24.95;39.85;99935.41;5004042;28;20096;-45
2021/12/26 06:26:43;;;;;;;359.73;259.35;;;;;;;25.01;39.75;99950.25;5003980;28;20539;-44
2021/12/26 06:29:13;;;;;;;361.20;264.60;;;;;;;25.05;39.77;99951.06;5003864;28;20113;-44
2021/12/26 06:31:42;;;;;;;362.05;262.15;;;;;;;25.02;39.94;99946.72;5004032;28;20041;-45
2021/12/26 06:34:11;;;;;;;354.55;259.13;;;;;;;24.99;40.16;99950.22;5003979;28;20430;-44
2021/12/26 06:36:39;;;;;;;369.15;270.52;;;;;;;24.97;40.05;99961.63;5003734;28;20046;-45
2021/12/26 06:39:08;;;;;;;367.27;263.98;;;;;;;24.97;40.14;99970.38;5004361;28;20123;-44
2021/12/26 06:41:38;;;;;;;362.55;260.77;;;;;;;24.97;40.17;99972.13;5003937;28;20431;-44
2021/12/26 06:44:08;;;;;;;356.13;259.77;;;;;;;24.95;40.24;99979.13;5003762;28;20064;-44
2021/12/26 06:46:38;;;;;;;348.23;259.20;;;;;;;24.97;40.18;99987.88;5004223;28;20104;-44
2021/12/26 06:49:07;;;;;;;334.73;246.80;;;;;;;24.96;40.01;100002.75;5003940;28;20033;-44
2021/12/26 06:51:36;;;;;;;350.17;256.70;;;;;;;24.87;40.30;99987.94;5003790;28;20113;-44
2021/12/26 06:54:04;;;;;;;353.73;257.30;;;;;;;25.03;40.06;99996.56;5003680;28;20025;-44
2021/12/26 06:56:33;;;;;;;351.70;257.60;;;;;;;24.97;39.87;99996.63;5003564;28;20034;-44
2021/12/26 06:59:02;;;;;;;348.75;251.45;;;;;;;25.01;40.15;99987.81;5003672;28;20274;-42
2021/12/26 07:01:30;;;;;;;347.58;250.48;;;;;;;25.09;39.66;99974.66;5003745;28;20037;-43
2021/12/26 07:03:59;;;;;;;342.50;248.77;;;;;;;24.99;39.67;99991.34;5003772;28;20455;-43
2021/12/26 07:06:28;;;;;;;348.17;254.48;;;;;;;24.95;40.18;99998.38;5003393;28;20065;-43
2021/12/26 07:08:56;;;;;;;347.98;246.60;;;;;;;24.91;40.29;99969.53;5003086;28;20874;-43
2021/12/26 07:11:24;;;;;;;350.95;257.23;;;;;;;24.83;40.24;99966.97;5005223;28;20140;-43
2021/12/26 07:13:53;;;;;;;362.60;260.67;;;;;;;24.80;40.51;99977.50;5007421;28;20033;-43
2021/12/26 07:16:23;;;;;;;360.23;261.08;;;;;;;24.84;40.18;99982.72;5007342;28;20076;-43
2021/12/26 07:18:53;;;;;;;344.45;255.05;;;;;;;24.87;40.05;99973.94;5007689;28;20092;-43
2021/12/26 07:21:21;;;;;;;356.58;263.95;;;;;;;24.88;40.17;99984.44;5007471;28;20038;-44
2021/12/26 07:23:49;;;;;;;349.90;256.23;;;;;;;24.98;40.10;99987.88;5007634;28;20430;-43
2021/12/26 07:26:17;;;;;;;346.55;252.52;;;;;;;24.97;40.26;99980.88;5007729;28;20030;-44
2021/12/26 07:28:46;;;;;;;342.63;247.95;;;;;;;24.88;40.00;99978.31;5006722;28;20450;-44
2021/12/26 07:31:14;;;;;;;343.40;256.25;;;;;;;24.86;40.01;99987.94;5008117;28;20025;-44
2021/12/26 07:33:43;;;;;;;355.92;257.60;;;;;;;24.87;40.21;99979.19;5007426;28;20026;-43
2021/12/26 07:36:11;;;;;;;341.92;252.85;;;;;;;24.85;40.06;99980.94;5006797;28;20036;-44
2021/12/26 07:38:39;;;;;;;352.95;259.63;;;;;;;24.83;40.32;99983.59;5007265;28;20042;-44
2021/12/26 07:41:08;;;;;;;355.85;259.85;;;;;;;24.84;39.97;99981.81;5012089;28;20034;-44
2021/12/26 07:43:36;;;;;;;358.05;260.77;;;;;;;24.78;40.35;99987.13;5006882;28;20049;-45
2021/12/26 07:46:05;;;;;;;352.83;253.50;;;;;;;24.79;40.35;99994.97;5007617;28;20050;-44
2021/12/26 07:48:33;;;;;;;360.02;259.55;;;;;;;24.79;40.38;99994.13;5007077;28;20038;-44
2021/12/26 07:51:04;;;;;;;346.63;248.43;;;;;;;24.96;40.19;99996.63;5006299;28;20084;-44
2021/12/26 07:53:34;;;;;;;337.98;246.45;;;;;;;24.84;40.38;100000.19;5007066;28;20040;-43
2021/12/26 07:56:03;;;;;;;334.63;246.90;;;;;;;24.94;39.98;99988.78;5007275;28;20132;-44
2021/12/26 07:58:32;;;;;;;342.33;245.38;;;;;;;24.92;39.86;99987.00;5007039;28;20025;-44
2021/12/26 08:01:00;;;;;;;341.55;251.85;;;;;;;25.01;39.88;99986.97;5010255;28;20132;-42
2021/12/26 08:03:29;;;;;;;333.05;241.57;;;;;;;24.95;40.11;99995.75;5007122;28;20135;-44
2021/12/26 08:05:57;;;;;;;336.10;247.05;;;;;;;24.97;39.89;100008.84;5011239;28;20030;-43
2021/12/26 08:08:26;;;;;;;347.42;252.05;;;;;;;24.89;40.36;100003.66;5006537;28;20029;-43
2021/12/26 08:10:54;;;;;;;367.45;262.83;;;;;;;24.79;40.42;100001.97;5006507;28;20480;-44
2021/12/26 08:13:22;;;;;;;353.15;253.32;;;;;;;24.82;40.28;100008.06;5005006;28;20380;-43
2021/12/26 08:15:51;;;;;;;351.38;252.38;;;;;;;24.83;40.61;100008.94;5004880;28;20095;-44
2021/12/26 08:18:20;;;;;;;350.20;251.68;;;;;;;24.87;40.15;100008.03;5005235;28;20034;-47
2021/12/26 08:20:48;;;;;;;351.75;253.60;;;;;;;24.86;40.23;100014.16;5011631;28;20041;-47
2021/12/26 08:23:17;;;;;;;339.02;251.23;;;;;;;24.83;40.44;100014.19;5005569;28;20711;-43
2021/12/26 08:25:46;;;;;;;346.02;257.88;;;;;;;24.80;40.55;100007.19;5014458;28;20432;-43
2021/12/26 08:28:15;;;;;;;349.55;250.60;;;;;;;24.83;40.67;100009.81;5011167;28;20037;-44
2021/12/26 08:30:45;;;;;;;345.30;251.23;;;;;;;24.84;40.36;100011.56;5006258;28;20152;-45
2021/12/26 08:33:14;;;;;;;344.38;249.95;;;;;;;24.86;40.41;100025.53;5006486;28;20285;-43
2021/12/26 08:35:44;;;;;;;334.42;244.63;;;;;;;24.86;40.58;100022.03;5006110;28;20728;-45
2021/12/26 08:38:15;;;;;;;328.10;241.15;;;;;;;24.87;40.42;100019.41;5004490;28;20041;-44
2021/12/26 08:40:44;;;;;;;341.73;249.48;;;;;;;24.87;40.67;100023.78;5006035;28;20373;-43
2021/12/26 08:43:13;;;;;;;336.85;246.95;;;;;;;24.85;40.83;100023.81;5006444;28;20034;-44
2021/12/26 08:45:42;;;;;;;321.30;242.18;;;;;;;24.94;40.91;100027.22;5010499;28;20435;-43
2021/12/26 08:48:11;;;;;;;344.17;244.98;;;;;;;24.87;40.89;100015.91;5008331;28;20034;-43
2021/12/26 08:50:40;;;;;;;343.80;251.32;;;;;;;24.96;40.86;100028.09;5006020;28;20471;-44
2021/12/26 08:53:09;;;;;;;348.65;251.73;;;;;;;24.94;41.03;100022.00;5008509;28;20124;-43
2021/12/26 08:55:37;;;;;;;339.25;243.43;;;;;;;24.95;40.78;100023.72;5005457;28;20056;-44
2021/12/26 08:58:06;;;;;;;343.10;247.75;;;;;;;24.96;40.90;100021.13;5008628;28;20063;-44
2021/12/26 09:00:36;;;;;;;341.80;244.75;;;;;;;24.93;41.28;100039.50;5006733;28;20405;-43
2021/12/26 09:03:05;;;;;;;352.30;246.57;;;;;;;24.97;41.32;100042.97;5010807;28;20512;-44
2021/12/26 09:05:34;;;;;;;330.83;242.00;;;;;;;24.99;40.80;100046.44;5006639;28;20038;-43
2021/12/26 09:08:03;;;;;;;335.65;243.00;;;;;;;24.97;41.21;100059.59;5006792;28;20443;-43
2021/12/26 09:10:32;;;;;;;338.33;240.90;;;;;;;24.96;40.83;100063.09;5005543;28;20068;-43
2021/12/26 09:13:00;;;;;;;339.73;238.73;;;;;;;24.97;41.14;100063.97;5005582;28;20120;-43
2021/12/26 09:15:29;;;;;;;329.35;235.52;;;;;;;25.00;41.23;100066.56;5010752;28;20104;-42
2021/12/26 09:17:59;;;;;;;334.25;238.85;;;;;;;25.05;40.97;100058.66;5009861;28;20061;-43
2021/12/26 09:20:29;;;;;;;335.05;240.55;;;;;;;24.98;41.11;100060.44;5008849;28;20095;-43
2021/12/26 09:22:57;;;;;;;314.77;228.25;;;;;;;24.97;41.00;100056.09;5009275;28;20475;-43
2021/12/26 09:25:26;;;;;;;328.77;234.75;;;;;;;24.94;40.77;100038.63;5010365;28;20045;-43
2021/12/26 09:27:56;;;;;;;315.77;230.40;;;;;;;24.94;40.93;100043.88;5007055;28;20034;-43
2021/12/26 09:30:24;;;;;;;331.00;235.93;;;;;;;24.92;40.84;100045.63;5005453;28;20030;-43
2021/12/26 09:32:53;;;;;;;326.08;233.50;;;;;;;24.96;40.79;100042.09;5005145;28;20096;-42
2021/12/26 09:35:22;;;;;;;336.85;236.70;;;;;;;25.11;40.64;100050.75;5004540;28;20041;-43
2021/12/26 09:37:50;;;;;;;336.52;236.75;;;;;;;25.00;40.97;100048.19;5006059;28;20030;-44
2021/12/26 09:40:21;;;;;;;332.45;238.40;;;;;;;24.93;41.36;100043.84;5005033;28;20113;-44
2021/12/26 09:42:50;;;;;;;331.60;234.40;;;;;;;25.00;40.88;100035.09;5006995;28;20029;-43
2021/12/26 09:45:19;;;;;;;329.67;236.88;;;;;;;25.02;41.09;100036.81;5007705;28;20034;-44
2021/12/26 09:47:50;;;;;;;331.05;232.73;;;;;;;24.95;41.01;100032.50;5003213;28;20034;-43
2021/12/26 09:50:21;;;;;;;329.05;233.38;;;;;;;24.94;40.76;100027.22;5004905;28;20037;-44
2021/12/26 09:52:50;;;;;;;332.35;233.38;;;;;;;24.93;41.26;100026.38;5009534;28;20526;-44
2021/12/26 09:55:18;;;;;;;320.83;227.82;;;;;;;24.88;40.91;100023.78;5004282;28;20827;-43
2021/12/26 09:57:47;;;;;;;326.08;233.63;;;;;;;24.90;40.90;100028.16;5010511;28;20057;-43
2021/12/26 10:00:20;;;;;;;323.75;223.48;;;;;;;24.84;40.89;100016.81;5010157;28;20318;-43
2021/12/26 10:02:48;;;;;;;329.60;232.27;;;;;;;24.91;41.19;100015.00;5010332;28;20050;-42
2021/12/26 10:05:17;;;;;;;333.38;229.50;;;;;;;24.89;41.19;100019.41;5003118;28;20033;-43
2021/12/26 10:07:45;;;;;;;320.33;224.57;;;;;;;24.92;40.98;100016.75;5005952;28;20347;-43
2021/12/26 10:10:14;;;;;;;323.45;229.60;;;;;;;24.92;41.18;100014.13;5007043;28;20391;-43
2021/12/26 10:12:43;;;;;;;314.10;224.05;;;;;;;24.94;40.78;100008.88;5004295;28;20396;-44
2021/12/26 10:15:12;;;;;;;332.35;228.63;;;;;;;25.01;40.63;100014.06;5007212;28;20041;-43
2021/12/26 10:17:40;;;;;;;338.65;231.80;;;;;;;25.00;41.15;100017.56;5004233;28;20500;-44
2021/12/26 10:20:11;;;;;;;319.13;229.38;;;;;;;24.97;41.12;100017.63;5004249;28;20449;-44
2021/12/26 10:22:40;;;;;;;331.10;237.48;;;;;;;25.02;40.77;100007.94;5004501;28;20172;-43
2021/12/26 10:25:14;;;;;;;327.90;233.05;;;;;;;25.03;41.20;100000.97;5004429;28;20040;-43
2021/12/26 10:27:45;;;;;;;332.70;235.18;;;;;;;25.10;40.87;100007.88;5009254;28;20030;-43
2021/12/26 10:30:17;;;;;;;326.77;230.73;;;;;;;25.04;40.68;100010.56;5004885;28;20045;-44
2021/12/26 10:32:46;;;;;;;328.48;234.05;;;;;;;25.03;41.20;100011.44;5007061;28;20199;-43
2021/12/26 10:35:17;;;;;;;323.67;235.45;;;;;;;25.01;40.91;99997.47;5003904;28;20105;-43
2021/12/26 10:37:48;;;;;;;348.20;245.73;;;;;;;25.12;40.85;99987.75;5010097;28;20629;-43
2021/12/26 10:40:19;;;;;;;347.25;246.40;;;;;;;25.26;40.76;99982.41;5002570;28;20034;-43
2021/12/26 10:42:50;;;;;;;340.90;242.90;;;;;;;25.21;40.87;99973.69;5004084;28;20030;-44
2021/12/26 10:45:21;;;;;;;345.45;238.48;;;;;;;25.26;40.68;99985.03;5003711;28;20061;-43
2021/12/26 10:48:09;;;;;;;352.60;243.98;;;;;;;25.37;40.37;99990.22;5004055;28;20475;-44
2021/12/26 10:50:40;;;;;;;339.55;242.60;;;;;;;25.36;40.45;99977.97;5004572;28;20036;-44
2021/12/26 10:53:12;;;;;;;341.30;246.77;;;;;;;25.10;40.87;99976.41;5013120;28;20029;-43
2021/12/26 10:55:43;;;;;;;338.40;245.07;;;;;;;25.09;41.38;99969.41;5008254;28;20038;-44
2021/12/26 10:58:19;;;;;;;336.45;244.73;;;;;;;25.06;41.14;99979.06;5005313;28;20126;-44
2021/12/26 11:00:50;;;;;;;336.88;242.75;;;;;;;25.03;41.13;99974.72;5005691;28;20072;-43
2021/12/26 11:03:30;;;;;;;343.38;245.10;;;;;;;25.09;41.02;99966.78;5008362;28;20525;-44
2021/12/26 11:06:06;;;;;;;350.52;251.43;;;;;;;25.15;41.38;99963.25;5014510;28;20387;-44
2021/12/26 11:08:42;;;;;;;355.08;251.70;;;;;;;25.28;40.56;99962.28;5003221;28;20069;-44
2021/12/26 11:11:23;;;;;;;356.98;247.80;;;;;;;25.29;40.68;99950.00;5006945;28;20041;-45
2021/12/26 11:14:03;;;;;;;347.23;249.43;;;;;;;25.23;40.91;99957.94;5008637;28;20705;-44